OIII/THR METAR and TAF weather

Enter ICAO airport designator
Station Type Date Time Source
OIII METAR 2022/11/30 17:00 UTC NOAA

OIII 301700Z 00000KT 8000 FEW040 SCT190 12/M01 Q1024 A3026 NOSIG


Station Type Date Time Source
OIII Decoded METAR 2022/11/30 17:00 UTC NOAA

Tehran-Mehrabad, Iran (OIII) 35-41N 051-21E 1191M
Nov 30, 2022 - 12:00 PM EST / 2022.11.30 1700 UTC
Wind: Calm:0
Visibility: 4 mile(s):0
Sky conditions: partly cloudy
Temperature: 53 F (12 C)
Dew Point: 30 F (-1 C)
Relative Humidity: 40%
Pressure (altimeter): 30.26 in. Hg (1024 hPa)
ob: OIII 301700Z 00000KT 8000 FEW040 SCT190 12/M01 Q1024 A3026 NOSIG
cycle: 17

Station Type Date Time Source
OIII TAF 2022/11/30 12:15 UTC NOAA

TAF OIII 301100Z 3012/0118 14006KT 6000 FEW035 BKN100
TEMPO 3012/3015 3000 HZ FEW035CB SCT040 BKN100
BECMG 3018/3020 03006KT FEW035CB SCT040 BKN100
TEMPO 0102/0110 4000 RA
BECMG 0112/0114 24006KT 7000 NSC

Example: see airport list